Time;durP1;ratioP1;P1;durP2;ratioP2;P2;SDS_P1;SDS_P2;PMS_P1;PMS_P2;Temp;Humidity;BMP_temperature;BMP_pressure;BME280_temperature;BME280_humidity;BME280_pressure;Samples;Min_cycle;Max_cycle;Signal;HPM_P1;HPM_P2
2022/03/06 00:00:24;;;;;;;7.85;4.40;;;;;;;1.92;56.48;101123.91;1711164;82;21029;-69
2022/03/06 00:02:51;;;;;;;8.35;4.70;;;;;;;1.95;56.14;101122.73;1712840;81;21105;-68
2022/03/06 00:05:19;;;;;;;7.58;4.10;;;;;;;1.97;55.93;101119.39;1713572;82;21085;-69
2022/03/06 00:07:47;;;;;;;7.75;4.60;;;;;;;2.01;55.76;101121.48;1719216;81;21124;-69
2022/03/06 00:10:14;;;;;;;7.65;4.60;;;;;;;2.05;55.42;101118.78;1706194;83;21282;-69
2022/03/06 00:12:42;;;;;;;9.03;4.97;;;;;;;2.07;55.01;101126.02;1717728;81;21086;-69
2022/03/06 00:15:10;;;;;;;7.83;4.55;;;;;;;2.08;54.93;101123.68;1710457;83;21050;-69
2022/03/06 00:17:37;;;;;;;7.97;4.15;;;;;;;2.09;54.83;101123.17;1714748;82;21024;-68
2022/03/06 00:20:08;;;;;;;8.25;4.17;;;;;;;2.13;54.83;101120.98;1710215;82;21119;-70
2022/03/06 00:22:36;;;;;;;8.58;4.42;;;;;;;2.17;54.82;101127.00;1716911;83;22262;-70
2022/03/06 00:25:05;;;;;;;8.65;4.35;;;;;;;2.20;54.92;101127.94;1716476;81;21131;-70
2022/03/06 00:27:32;;;;;;;6.35;3.40;;;;;;;2.21;55.30;101123.52;1709985;82;21556;-70
2022/03/06 00:29:59;;;;;;;6.15;3.52;;;;;;;2.20;55.76;101123.98;1718312;81;21104;-70
2022/03/06 00:32:27;;;;;;;5.60;3.50;;;;;;;2.18;56.30;101125.20;1723513;82;21307;-70
2022/03/06 00:34:55;;;;;;;5.47;3.75;;;;;;;2.13;56.82;101121.79;1710285;83;21605;-70
2022/03/06 00:37:22;;;;;;;5.45;3.12;;;;;;;2.07;57.31;101120.74;1713917;81;20939;-69
2022/03/06 00:39:50;;;;;;;6.15;3.77;;;;;;;2.04;57.99;101123.75;1696695;83;21105;-70
2022/03/06 00:42:17;;;;;;;7.45;3.87;;;;;;;1.98;58.42;101123.17;1721105;81;21099;-69
2022/03/06 00:44:45;;;;;;;5.83;3.45;;;;;;;1.94;58.77;101121.92;1715456;81;20982;-69
2022/03/06 00:47:12;;;;;;;5.90;3.40;;;;;;;1.96;59.17;101124.36;1712111;83;21851;-69
2022/03/06 00:49:41;;;;;;;6.25;3.45;;;;;;;1.88;59.58;101120.02;1714881;81;21088;-69
2022/03/06 00:52:08;;;;;;;5.70;3.40;;;;;;;1.78;59.85;101126.91;1722562;81;21565;-69
2022/03/06 00:54:36;;;;;;;5.65;3.35;;;;;;;1.75;60.14;101124.64;1714774;81;21025;-69
2022/03/06 00:57:04;;;;;;;6.72;3.75;;;;;;;1.78;60.25;101130.05;1740486;81;21055;-70
2022/03/06 00:59:34;;;;;;;7.03;4.17;;;;;;;2.00;60.06;101129.56;1715191;83;21268;-70
2022/03/06 01:02:00;;;;;;;7.12;3.75;;;;;;;2.07;59.91;101126.48;1718396;81;21586;-70
2022/03/06 01:04:27;;;;;;;6.58;3.62;;;;;;;2.03;59.92;101126.05;1728698;81;21071;-69
2022/03/06 01:06:54;;;;;;;5.60;3.25;;;;;;;1.91;59.92;101130.67;1713097;83;21107;-69
2022/03/06 01:09:21;;;;;;;7.03;3.60;;;;;;;2.01;59.50;101118.03;1716393;81;21068;-69
2022/03/06 01:11:49;;;;;;;5.70;3.20;;;;;;;2.06;59.31;101124.86;1720401;82;21791;-68
2022/03/06 01:14:17;;;;;;;5.50;3.40;;;;;;;2.08;58.99;101127.63;1719146;81;21023;-70
2022/03/06 01:16:44;;;;;;;5.30;3.40;;;;;;;2.11;58.78;101129.09;1715936;81;21099;-70
2022/03/06 01:19:11;;;;;;;5.60;3.30;;;;;;;2.15;58.51;101129.53;1714766;82;21025;-70
2022/03/06 01:21:39;;;;;;;6.47;3.30;;;;;;;2.18;58.37;101135.23;1721704;82;21062;-70
2022/03/06 01:24:06;;;;;;;6.72;3.30;;;;;;;2.24;58.13;101135.00;1711448;82;21224;-69
2022/03/06 01:26:34;;;;;;;5.65;3.22;;;;;;;2.26;57.93;101133.78;1709703;83;21469;-70
2022/03/06 01:29:03;;;;;;;6.12;3.27;;;;;;;2.12;58.05;101132.03;1711334;83;21085;-70
2022/03/06 01:31:30;;;;;;;5.83;3.47;;;;;;;2.03;58.21;101136.59;1717531;81;21138;-69
2022/03/06 01:33:59;;;;;;;7.53;3.55;;;;;;;2.04;58.28;101135.61;1716417;83;21084;-69
2022/03/06 01:36:26;;;;;;;6.30;3.40;;;;;;;2.05;58.24;101139.05;1714727;83;21604;-69
2022/03/06 01:38:53;;;;;;;6.12;3.35;;;;;;;2.08;58.15;101139.49;1713854;82;21097;-69
2022/03/06 01:41:21;;;;;;;6.25;3.50;;;;;;;2.11;58.15;101137.80;1714761;82;21089;-69
2022/03/06 01:43:48;;;;;;;6.87;3.98;;;;;;;2.35;57.68;101134.48;1710507;82;21470;-68
2022/03/06 01:46:15;;;;;;;5.70;3.50;;;;;;;2.42;57.50;101134.04;1712262;82;21135;-69
2022/03/06 01:48:42;;;;;;;6.30;3.67;;;;;;;2.42;57.41;101136.67;1712116;83;21347;-69
2022/03/06 01:51:09;;;;;;;6.70;4.12;;;;;;;2.40;57.47;101134.72;1715514;83;21064;-69
2022/03/06 01:53:37;;;;;;;6.78;3.90;;;;;;;2.16;58.01;101133.28;1686999;83;21527;-68
2022/03/06 01:56:05;;;;;;;6.60;3.92;;;;;;;2.21;58.04;101140.13;1709002;82;21030;-68
2022/03/06 01:58:34;;;;;;;7.45;4.45;;;;;;;2.26;58.01;101139.05;1714637;83;21127;-69
2022/03/06 02:01:03;;;;;;;7.70;4.00;;;;;;;2.22;58.12;101131.72;1716545;83;21265;-68
2022/03/06 02:03:32;;;;;;;7.83;4.40;;;;;;;2.22;58.31;101135.67;1707680;83;21045;-68
2022/03/06 02:05:59;;;;;;;7.95;4.60;;;;;;;2.21;58.32;101141.45;1709245;83;21033;-69
2022/03/06 02:08:28;;;;;;;9.30;4.97;;;;;;;2.23;58.34;101139.94;1702395;83;21035;-68
2022/03/06 02:10:56;;;;;;;7.85;4.47;;;;;;;2.25;58.35;101143.21;1713915;83;21454;-68
2022/03/06 02:13:23;;;;;;;8.55;5.15;;;;;;;2.27;58.39;101148.62;1716484;82;21215;-68
2022/03/06 02:15:50;;;;;;;8.08;4.67;;;;;;;2.30;58.36;101148.24;1711143;81;21537;-69
2022/03/06 02:18:18;;;;;;;7.30;4.28;;;;;;;2.32;58.33;101148.04;1694643;82;21183;-69
2022/03/06 02:20:47;;;;;;;7.25;4.22;;;;;;;2.31;58.17;101146.41;1715487;82;21045;-70
2022/03/06 02:23:15;;;;;;;5.97;3.60;;;;;;;2.28;58.07;101149.42;1715562;83;21087;-69
2022/03/06 02:25:43;;;;;;;7.72;3.47;;;;;;;2.13;58.14;101144.19;1714528;83;21102;-69
2022/03/06 02:28:11;;;;;;;7.30;3.90;;;;;;;1.97;58.42;101143.91;1716758;81;21136;-69
2022/03/06 02:30:41;;;;;;;7.40;4.00;;;;;;;1.95;58.46;101143.30;1711256;83;21141;-68
2022/03/06 02:33:11;;;;;;;6.90;4.25;;;;;;;1.95;58.45;101144.62;1718762;82;21075;-68
2022/03/06 02:35:38;;;;;;;7.97;3.75;;;;;;;1.96;58.42;101158.09;1712829;81;21059;-69
2022/03/06 02:38:05;;;;;;;8.33;4.00;;;;;;;1.95;58.38;101156.47;1709970;83;21898;-68
2022/03/06 02:40:41;;;;;;;6.33;3.70;;;;;;;1.92;58.33;101156.03;1714100;81;21643;-69
2022/03/06 02:43:06;;;;;;;7.53;4.20;;;;;;;1.91;58.31;101156.53;1712589;83;21022;-69
2022/03/06 02:45:35;;;;;;;7.58;4.30;;;;;;;1.92;58.24;101162.61;1714048;81;21466;-68
2022/03/06 02:48:02;;;;;;;7.17;3.92;;;;;;;1.92;58.15;101156.84;1711850;82;21002;-69
2022/03/06 02:50:33;;;;;;;6.50;3.92;;;;;;;1.92;58.04;101160.79;1732294;81;21914;-69
2022/03/06 02:53:02;;;;;;;8.23;4.40;;;;;;;1.90;57.99;101162.78;1710878;83;21021;-69
2022/03/06 02:55:30;;;;;;;6.85;3.90;;;;;;;1.91;57.96;101160.48;1717233;81;21721;-69
2022/03/06 02:57:57;;;;;;;6.35;3.72;;;;;;;1.94;57.91;101161.91;1683969;83;21030;-69
2022/03/06 03:00:25;;;;;;;7.30;4.05;;;;;;;1.99;57.66;101157.73;1710169;83;21069;-67
2022/03/06 03:02:52;;;;;;;7.92;4.17;;;;;;;1.89;57.85;101157.20;1698910;83;21219;-67
2022/03/06 03:05:19;;;;;;;6.40;4.08;;;;;;;1.86;57.92;101158.39;1718846;81;21653;-68
2022/03/06 03:07:49;;;;;;;7.20;4.05;;;;;;;1.85;57.96;101159.91;1676058;83;21547;-68
2022/03/06 03:10:19;;;;;;;8.25;4.22;;;;;;;1.83;58.02;101161.39;1719585;83;21089;-68
2022/03/06 03:12:48;;;;;;;6.33;3.72;;;;;;;1.77;58.01;101156.85;1708996;81;21109;-68
2022/03/06 03:15:17;;;;;;;6.10;3.80;;;;;;;1.72;58.13;101157.11;1714693;83;21174;-68
2022/03/06 03:17:44;;;;;;;7.03;4.42;;;;;;;1.69;58.28;101160.11;1718753;81;21033;-68
2022/03/06 03:20:14;;;;;;;7.45;4.03;;;;;;;1.64;58.34;101164.09;1707796;83;21560;-68
2022/03/06 03:22:41;;;;;;;7.85;4.37;;;;;;;1.59;58.46;101159.07;1713738;81;21097;-68
2022/03/06 03:25:12;;;;;;;6.87;4.10;;;;;;;1.50;58.64;101157.52;1715963;83;21501;-68
2022/03/06 03:27:40;;;;;;;8.65;4.75;;;;;;;1.36;58.85;101157.85;1716911;81;21235;-68
2022/03/06 03:30:08;;;;;;;7.62;4.40;;;;;;;1.26;59.00;101158.13;1715442;82;21061;-68
2022/03/06 03:32:37;;;;;;;7.50;4.17;;;;;;;1.21;59.21;101160.97;1720208;81;21053;-68
2022/03/06 03:35:05;;;;;;;7.28;4.35;;;;;;;1.20;59.48;101160.66;1716124;82;21025;-69
2022/03/06 03:37:33;;;;;;;7.20;4.45;;;;;;;1.19;59.64;101155.90;1719199;83;21099;-70
2022/03/06 03:40:00;;;;;;;8.90;4.62;;;;;;;1.16;59.81;101147.05;1721517;83;22100;-70
2022/03/06 03:42:29;;;;;;;8.30;4.97;;;;;;;1.15;60.01;101149.34;1717097;83;21432;-68
2022/03/06 03:44:57;;;;;;;9.73;4.87;;;;;;;1.14;60.21;101156.92;1728670;81;21085;-68
2022/03/06 03:47:24;;;;;;;8.28;4.55;;;;;;;1.14;60.33;101164.31;1723627;81;21028;-68
2022/03/06 03:49:51;;;;;;;8.68;5.10;;;;;;;1.14;60.40;101164.81;1716853;83;21434;-69
2022/03/06 03:52:19;;;;;;;9.20;4.67;;;;;;;1.15;60.47;101164.66;1718222;81;21214;-69
2022/03/06 03:54:47;;;;;;;6.67;4.25;;;;;;;1.16;60.58;101179.94;1711433;82;21034;-68
2022/03/06 03:57:13;;;;;;;7.05;4.05;;;;;;;1.11;60.79;101177.02;1715129;81;21110;-68
2022/03/06 03:59:41;;;;;;;6.60;3.90;;;;;;;1.02;61.04;101177.61;1724633;81;21100;-67
2022/03/06 04:02:09;;;;;;;6.12;3.75;;;;;;;0.95;61.12;101176.66;1714270;83;21128;-68
2022/03/06 04:04:36;;;;;;;6.80;4.00;;;;;;;0.92;61.17;101179.64;1712196;81;21248;-67
2022/03/06 04:07:05;;;;;;;6.92;4.03;;;;;;;0.89;61.18;101180.84;1713912;83;21061;-68
2022/03/06 04:09:33;;;;;;;8.50;3.92;;;;;;;0.87;61.30;101181.50;1719710;81;21084;-68
2022/03/06 04:12:00;;;;;;;7.08;4.20;;;;;;;0.88;61.42;101179.19;1710487;83;21138;-68
2022/03/06 04:14:29;;;;;;;6.87;4.10;;;;;;;0.90;61.53;101186.91;1714564;81;21551;-69
2022/03/06 04:16:59;;;;;;;7.33;4.10;;;;;;;0.90;61.65;101182.47;1712463;83;21935;-68
2022/03/06 04:19:26;;;;;;;7.33;4.47;;;;;;;0.94;61.73;101189.50;1713840;81;21073;-68
2022/03/06 04:21:53;;;;;;;7.33;4.75;;;;;;;0.92;61.73;101188.85;1714708;83;21010;-69
2022/03/06 04:24:21;;;;;;;7.75;4.67;;;;;;;0.90;61.76;101189.55;1713910;81;21559;-69
2022/03/06 04:26:48;;;;;;;8.78;4.83;;;;;;;0.92;61.83;101187.53;1713886;83;21085;-69
2022/03/06 04:29:16;;;;;;;8.28;5.03;;;;;;;0.98;61.87;101188.64;1708280;83;21133;-68
2022/03/06 04:31:43;;;;;;;7.92;4.50;;;;;;;1.03;61.88;101191.57;1714311;83;21050;-68
2022/03/06 04:34:11;;;;;;;9.78;5.20;;;;;;;1.09;61.82;101194.30;1715204;81;21174;-68
2022/03/06 04:36:39;;;;;;;8.15;4.60;;;;;;;1.13;61.75;101196.89;1716961;83;21548;-68
2022/03/06 04:39:06;;;;;;;9.30;5.28;;;;;;;1.16;61.63;101199.17;1721404;81;21792;-68
2022/03/06 04:41:34;;;;;;;7.97;4.75;;;;;;;1.21;61.48;101197.30;1714956;82;21255;-68
2022/03/06 04:44:02;;;;;;;8.73;4.58;;;;;;;1.25;61.34;101204.34;1714611;81;21058;-68
2022/03/06 04:46:31;;;;;;;9.60;5.45;;;;;;;1.26;61.28;101207.30;1708497;83;21049;-68
2022/03/06 04:48:59;;;;;;;8.68;4.92;;;;;;;1.31;61.18;101203.63;1715429;83;21065;-69
2022/03/06 04:51:29;;;;;;;7.85;4.60;;;;;;;1.34;61.06;101207.21;1710155;82;21500;-68
2022/03/06 04:53:57;;;;;;;9.53;5.37;;;;;;;1.33;60.95;101205.59;1719606;81;21268;-68
2022/03/06 04:56:25;;;;;;;9.50;5.72;;;;;;;1.35;60.92;101205.73;1712473;82;21079;-68
2022/03/06 04:58:52;;;;;;;8.45;5.62;;;;;;;1.35;60.83;101200.47;1720900;83;21111;-69
2022/03/06 05:01:20;;;;;;;10.40;5.72;;;;;;;1.40;60.75;101202.05;1700513;83;21045;-68
2022/03/06 05:03:48;;;;;;;9.13;5.45;;;;;;;1.45;60.66;101204.62;1715566;81;21543;-70
2022/03/06 05:06:17;;;;;;;10.00;5.30;;;;;;;1.46;60.57;101207.59;1717185;81;21177;-69
2022/03/06 05:08:46;;;;;;;11.00;5.90;;;;;;;1.60;60.38;101204.95;1716165;82;21054;-69
2022/03/06 05:11:14;;;;;;;10.32;5.83;;;;;;;1.77;59.96;101210.84;1710111;81;21032;-69
2022/03/06 05:13:43;;;;;;;10.78;5.90;;;;;;;1.83;59.68;101206.67;1715028;82;21563;-69
2022/03/06 05:16:11;;;;;;;9.78;6.20;;;;;;;1.89;59.45;101209.89;1725853;81;21073;-68
2022/03/06 05:18:38;;;;;;;10.82;6.05;;;;;;;1.93;59.14;101207.70;1698609;83;21523;-68
2022/03/06 05:21:05;;;;;;;13.53;6.37;;;;;;;1.93;58.88;101207.70;1724733;81;21069;-68
2022/03/06 05:23:32;;;;;;;9.78;6.12;;;;;;;1.96;58.72;101206.84;1716038;83;21260;-69
2022/03/06 05:26:01;;;;;;;10.70;6.10;;;;;;;1.99;58.57;101209.11;1709845;81;21100;-68
2022/03/06 05:28:28;;;;;;;8.58;5.35;;;;;;;2.02;58.43;101206.10;1713751;81;21615;-69
2022/03/06 05:30:57;;;;;;;11.60;6.20;;;;;;;2.01;58.04;101201.84;1712644;82;21784;-68
2022/03/06 05:33:26;;;;;;;11.38;6.50;;;;;;;1.99;57.86;101203.84;1712864;83;21070;-68
2022/03/06 05:35:55;;;;;;;12.63;5.62;;;;;;;1.91;57.77;101203.95;1714882;81;21725;-69
2022/03/06 05:38:22;;;;;;;9.48;5.70;;;;;;;1.78;57.97;101206.42;1685231;81;21019;-69
2022/03/06 05:40:49;;;;;;;10.13;6.28;;;;;;;1.76;57.97;101209.22;1693821;83;21075;-70
2022/03/06 05:43:19;;;;;;;10.05;6.00;;;;;;;2.05;57.46;101214.95;1691743;83;21181;-68
2022/03/06 05:45:51;;;;;;;11.20;6.33;;;;;;;2.16;57.21;101207.58;1693229;82;21089;-68
2022/03/06 05:48:23;;;;;;;11.18;6.10;;;;;;;2.23;56.88;101209.78;1675285;85;21660;-70
2022/03/06 05:50:52;;;;;;;9.90;5.35;;;;;;;2.29;56.59;101210.36;1686168;82;21540;-69
2022/03/06 05:53:20;;;;;;;8.95;4.72;;;;;;;2.33;56.14;101203.20;1696110;82;21088;-69
2022/03/06 05:55:47;;;;;;;10.45;5.00;;;;;;;2.17;55.84;101206.56;1687242;84;21153;-69
2022/03/06 05:58:15;;;;;;;7.55;4.15;;;;;;;2.19;55.46;101213.29;1703090;84;21031;-69
2022/03/06 06:00:42;;;;;;;7.55;4.08;;;;;;;2.26;55.35;101209.41;1708120;82;21125;-69
2022/03/06 06:03:12;;;;;;;6.87;3.90;;;;;;;2.30;55.09;101211.50;1669503;83;21087;-69
2022/03/06 06:05:43;;;;;;;7.47;4.45;;;;;;;2.35;55.09;101203.02;1692856;83;21066;-68
2022/03/06 06:08:12;;;;;;;6.40;3.47;;;;;;;2.25;55.36;101208.59;1697732;82;21285;-68
2022/03/06 06:10:39;;;;;;;7.08;4.03;;;;;;;2.24;55.32;101213.56;1701222;82;21137;-70
2022/03/06 06:13:09;;;;;;;6.20;3.67;;;;;;;2.32;54.94;101209.48;1690336;82;21090;-69
2022/03/06 06:15:37;;;;;;;5.87;3.12;;;;;;;2.34;54.98;101206.67;1692375;82;21090;-69
2022/03/06 06:18:11;;;;;;;6.10;3.50;;;;;;;2.41;54.30;101212.02;1702124;82;21109;-69
2022/03/06 06:20:40;;;;;;;6.85;3.52;;;;;;;2.41;54.01;101211.52;1703013;82;21244;-68
2022/03/06 06:23:10;;;;;;;5.40;3.12;;;;;;;2.45;54.11;101208.00;1698365;82;20990;-70
2022/03/06 06:25:42;;;;;;;7.08;3.92;;;;;;;2.53;53.83;101209.17;1700345;82;21790;-70
2022/03/06 06:28:13;;;;;;;7.00;3.70;;;;;;;2.60;53.44;101204.81;1699888;82;21117;-69
2022/03/06 06:30:46;;;;;;;8.13;4.17;;;;;;;2.71;53.22;101210.08;1701222;82;21058;-69
2022/03/06 06:33:19;;;;;;;6.45;4.08;;;;;;;2.74;52.89;101213.66;1679607;82;21169;-70
2022/03/06 06:35:48;;;;;;;6.95;3.83;;;;;;;2.79;52.71;101209.94;1694769;82;21120;-69
2022/03/06 06:38:20;;;;;;;5.83;3.45;;;;;;;2.85;52.53;101219.73;1689876;82;21149;-68
2022/03/06 06:40:50;;;;;;;7.95;3.60;;;;;;;2.91;52.43;101217.66;1705360;82;21014;-69
2022/03/06 06:43:20;;;;;;;5.85;3.70;;;;;;;3.01;52.21;101220.78;1710534;82;21065;-68
2022/03/06 06:45:51;;;;;;;;;;;;;;;3.30;51.49;101225.58;1708343;82;21327;-69
2022/03/06 06:48:29;;;;;;;7.22;4.30;;;;;;;3.12;51.71;101218.63;1699418;82;20248;-72
2022/03/06 06:50:57;;;;;;;6.95;3.90;;;;;;;3.10;51.65;101223.30;1697977;82;21784;-69
2022/03/06 06:53:25;;;;;;;6.90;4.08;;;;;;;3.16;51.69;101226.47;1665242;83;21551;-71
2022/03/06 06:55:52;;;;;;;8.65;4.10;;;;;;;3.15;51.37;101226.98;1692708;82;21141;-70
2022/03/06 06:58:19;;;;;;;5.97;3.77;;;;;;;3.13;51.42;101226.88;1689386;82;21775;-70
2022/03/06 07:00:47;;;;;;;6.87;4.20;;;;;;;3.15;51.14;101227.48;1698575;82;21133;-69
2022/03/06 07:03:15;;;;;;;6.83;4.10;;;;;;;3.08;51.17;101223.98;1689726;82;21121;-70
2022/03/06 07:05:47;;;;;;;8.00;4.22;;;;;;;3.20;51.18;101225.11;1694454;82;21565;-69
2022/03/06 07:08:14;;;;;;;9.63;4.35;;;;;;;3.38;50.74;101228.57;1698451;82;21165;-70
2022/03/06 07:10:43;;;;;;;7.65;4.72;;;;;;;3.07;50.81;101227.13;1691625;82;21818;-71
2022/03/06 07:13:10;;;;;;;7.28;4.37;;;;;;;3.03;51.23;101226.70;1699223;82;21224;-69
2022/03/06 07:15:39;;;;;;;6.78;4.45;;;;;;;3.09;51.08;101222.97;1699808;83;21115;-68
2022/03/06 07:18:06;;;;;;;7.78;4.28;;;;;;;3.14;51.13;101223.23;1695638;83;21074;-69
2022/03/06 07:20:35;;;;;;;7.25;4.50;;;;;;;3.39;50.64;101219.16;1694217;82;21118;-71
2022/03/06 07:23:02;;;;;;;8.55;4.37;;;;;;;3.63;50.33;101221.83;1688420;83;21136;-69
2022/03/06 07:25:29;;;;;;;7.75;4.58;;;;;;;3.77;49.76;101222.71;1697870;82;21086;-69
2022/03/06 07:27:56;;;;;;;6.65;4.20;;;;;;;3.82;49.53;101220.31;1693922;82;21116;-69
2022/03/06 07:30:23;;;;;;;8.03;4.50;;;;;;;3.83;49.41;101215.33;1696554;83;21672;-70
2022/03/06 07:32:51;;;;;;;6.50;4.00;;;;;;;3.88;49.03;101218.69;1725284;81;21038;-70
2022/03/06 07:35:19;;;;;;;7.17;4.35;;;;;;;3.84;48.89;101209.53;1723744;81;21231;-72
2022/03/06 07:37:47;;;;;;;6.75;4.37;;;;;;;3.70;49.45;101218.72;1713780;83;21350;-69
2022/03/06 07:40:17;;;;;;;7.03;4.62;;;;;;;3.70;49.55;101216.58;1719771;81;21583;-70
2022/03/06 07:42:44;;;;;;;6.40;4.17;;;;;;;3.78;49.35;101219.05;1711367;82;21125;-69
2022/03/06 07:45:11;;;;;;;6.95;4.35;;;;;;;3.77;48.92;101214.78;1713222;81;21637;-70
2022/03/06 07:47:38;;;;;;;7.47;4.78;;;;;;;3.76;48.96;101215.80;1710930;82;21597;-70
2022/03/06 07:50:07;;;;;;;6.30;4.17;;;;;;;3.84;48.99;101218.78;1725340;81;21088;-70
2022/03/06 07:52:36;;;;;;;7.33;4.45;;;;;;;3.91;48.81;101216.47;1709930;83;21552;-70
2022/03/06 07:55:06;;;;;;;6.80;4.42;;;;;;;3.97;48.62;101213.55;1718016;81;22306;-72
2022/03/06 07:57:33;;;;;;;5.80;3.72;;;;;;;3.93;48.63;101211.00;1714057;81;21115;-70
2022/03/06 08:00:05;;;;;;;5.87;4.05;;;;;;;3.96;48.71;101217.22;1718104;82;21188;-70
2022/03/06 08:02:37;;;;;;;8.13;4.45;;;;;;;3.94;48.72;101210.79;1715600;81;21153;-71
2022/03/06 08:05:12;;;;;;;6.42;3.90;;;;;;;4.05;48.82;101207.27;1721147;82;21029;-69
2022/03/06 08:07:41;;;;;;;5.55;3.77;;;;;;;4.16;48.71;101208.04;1701860;81;21048;-73
2022/03/06 08:10:10;;;;;;;6.58;3.90;;;;;;;4.26;48.71;101199.73;1720665;83;21156;-70
2022/03/06 08:12:43;;;;;;;7.25;3.70;;;;;;;4.32;48.24;101199.75;1718391;81;21270;-69
2022/03/06 08:15:10;;;;;;;7.00;4.28;;;;;;;4.35;47.96;101197.22;1715180;83;21105;-70
2022/03/06 08:17:37;;;;;;;5.55;3.60;;;;;;;4.32;48.03;101187.85;1716162;81;21052;-69
2022/03/06 08:20:06;;;;;;;4.95;3.33;;;;;;;4.35;47.92;101191.42;1681369;83;21139;-69
2022/03/06 08:22:35;;;;;;;5.75;3.62;;;;;;;4.36;47.90;101186.42;1714474;83;21082;-70
2022/03/06 08:25:03;;;;;;;10.43;4.65;;;;;;;4.44;47.94;101188.06;1719741;81;21934;-70
2022/03/06 08:27:32;;;;;;;5.28;3.33;;;;;;;4.54;47.78;101185.87;1712979;82;21077;-70
2022/03/06 08:30:01;;;;;;;5.58;3.65;;;;;;;4.60;47.34;101188.19;1712449;81;21154;-70
2022/03/06 08:32:30;;;;;;;6.17;3.83;;;;;;;4.52;47.24;101181.78;1714569;83;21160;-71
2022/03/06 08:34:58;;;;;;;6.28;3.85;;;;;;;4.41;47.28;101181.36;1715753;81;21127;-70
2022/03/06 08:37:25;;;;;;;6.40;3.72;;;;;;;4.43;47.35;101178.50;1687662;83;21204;-69
2022/03/06 08:39:53;;;;;;;6.37;3.90;;;;;;;4.52;47.28;101183.92;1715773;81;21078;-70
2022/03/06 08:42:20;;;;;;;5.90;3.67;;;;;;;4.67;47.17;101183.72;1715671;81;21094;-70
2022/03/06 08:44:48;;;;;;;5.45;3.52;;;;;;;4.82;47.50;101178.24;1720029;81;21047;-71
2022/03/06 08:47:16;;;;;;;8.18;4.40;;;;;;;5.02;47.49;101173.75;1685467;83;21582;-71
2022/03/06 08:49:44;;;;;;;7.78;4.55;;;;;;;5.14;46.84;101177.93;1719514;81;39656;-71
2022/03/06 08:52:11;;;;;;;5.20;3.70;;;;;;;5.25;46.83;101175.97;1684142;83;22348;-71
2022/03/06 08:54:40;;;;;;;5.90;3.70;;;;;;;5.43;46.55;101173.17;1714977;81;21051;-70
2022/03/06 08:57:08;;;;;;;6.30;4.00;;;;;;;5.60;45.86;101171.20;1719082;82;21065;-69
2022/03/06 08:59:35;;;;;;;5.92;4.15;;;;;;;5.59;45.71;101167.42;1716184;82;21140;-70
2022/03/06 09:02:04;;;;;;;5.62;3.67;;;;;;;5.57;45.80;101162.86;1701955;82;21723;-71
2022/03/06 09:04:33;;;;;;;6.72;3.95;;;;;;;5.59;45.53;101160.80;1706331;83;21138;-69
2022/03/06 09:07:00;;;;;;;6.28;4.15;;;;;;;5.40;45.40;101159.34;1709660;83;21384;-70
2022/03/06 09:09:27;;;;;;;5.35;3.77;;;;;;;5.24;45.82;101168.24;1710447;82;21094;-69
2022/03/06 09:11:54;;;;;;;6.03;3.95;;;;;;;5.20;46.14;101166.52;1709325;82;21745;-70
2022/03/06 09:14:21;;;;;;;5.60;3.72;;;;;;;5.19;46.15;101162.22;1708392;82;21153;-70
2022/03/06 09:16:49;;;;;;;5.92;3.90;;;;;;;5.16;46.11;101157.34;1699301;83;21137;-71
2022/03/06 09:19:16;;;;;;;6.22;3.80;;;;;;;5.09;46.07;101159.19;1715231;82;21078;-69
2022/03/06 09:21:46;;;;;;;7.50;4.05;;;;;;;4.97;45.97;101161.66;1715424;82;21051;-70
2022/03/06 09:24:15;;;;;;;7.35;4.28;;;;;;;4.88;46.25;101161.03;1715336;82;21019;-71
2022/03/06 09:26:43;;;;;;;6.92;4.40;;;;;;;4.87;46.34;101159.42;1709801;82;21659;-69
2022/03/06 09:29:10;;;;;;;6.67;4.67;;;;;;;4.79;45.97;101160.94;1684865;84;21559;-71
2022/03/06 09:31:37;;;;;;;6.25;4.10;;;;;;;4.53;46.26;101165.70;1728137;82;21039;-71
2022/03/06 09:34:04;;;;;;;7.90;4.70;;;;;;;4.31;46.57;101164.23;1721236;81;21163;-69
2022/03/06 09:36:33;;;;;;;7.47;4.42;;;;;;;4.05;46.91;101164.98;1715813;83;21091;-70
2022/03/06 09:39:00;;;;;;;7.08;4.67;;;;;;;3.92;47.29;101171.88;1712156;83;22083;-71
2022/03/06 09:41:28;;;;;;;7.05;4.65;;;;;;;3.91;47.76;101171.54;1716075;83;21066;-69
2022/03/06 09:43:56;;;;;;;7.30;4.12;;;;;;;3.88;47.90;101168.00;1693093;83;21042;-70
2022/03/06 09:46:25;;;;;;;5.95;4.12;;;;;;;3.81;47.98;101167.13;1715203;83;21050;-70
2022/03/06 09:48:52;;;;;;;6.35;4.20;;;;;;;3.70;48.04;101175.63;1710628;83;21100;-69
2022/03/06 09:51:20;;;;;;;7.10;3.77;;;;;;;3.58;48.23;101174.04;1714227;83;21294;-70
2022/03/06 09:53:48;;;;;;;6.03;3.77;;;;;;;3.55;48.58;101170.97;1715662;83;21047;-70
2022/03/06 09:56:15;;;;;;;6.15;3.70;;;;;;;3.49;48.43;101162.84;1712438;82;21053;-71
2022/03/06 09:58:44;;;;;;;6.50;3.87;;;;;;;3.47;48.51;101166.67;1715897;83;21049;-70
2022/03/06 10:01:12;;;;;;;6.92;3.85;;;;;;;3.38;48.73;101161.23;1713452;82;21598;-69
2022/03/06 10:03:39;;;;;;;6.60;4.05;;;;;;;3.36;48.85;101159.31;1715798;82;21190;-70
2022/03/06 10:06:10;;;;;;;5.37;3.50;;;;;;;3.37;48.86;101158.30;1708743;81;21061;-70
2022/03/06 10:08:37;;;;;;;6.03;3.47;;;;;;;3.39;49.04;101154.45;1657538;84;21176;-70
2022/03/06 10:11:09;;;;;;;5.42;3.45;;;;;;;3.46;48.97;101157.13;1683610;83;21099;-70
2022/03/06 10:13:40;;;;;;;5.47;3.30;;;;;;;3.44;48.75;101154.67;1711377;83;21069;-70
2022/03/06 10:16:21;;;;;;;5.85;3.35;;;;;;;3.64;48.36;101146.03;1725163;81;21143;-71
2022/03/06 10:18:54;;;;;;;6.55;3.83;;;;;;;3.83;47.93;101155.87;1707377;82;21526;-69
2022/03/06 10:21:29;;;;;;;5.90;3.62;;;;;;;3.95;47.37;101149.52;1716156;81;21613;-70
2022/03/06 10:24:06;;;;;;;6.58;3.40;;;;;;;4.00;46.90;101149.21;1691908;83;21038;-69
2022/03/06 10:26:34;;;;;;;6.53;3.45;;;;;;;4.06;46.74;101136.23;1718093;81;22192;-69
2022/03/06 10:29:11;;;;;;;5.33;3.40;;;;;;;4.12;46.60;101138.89;1674685;83;21246;-69
2022/03/06 10:31:53;;;;;;;6.40;3.67;;;;;;;4.19;46.46;101146.83;1715220;81;21092;-70
2022/03/06 10:34:21;;;;;;;6.53;3.90;;;;;;;4.26;46.34;101138.91;1714229;83;21086;-70
2022/03/06 10:36:52;;;;;;;6.45;3.70;;;;;;;4.34;46.16;101130.78;1671315;83;21033;-70
2022/03/06 10:39:21;;;;;;;6.53;3.87;;;;;;;4.37;45.92;101130.38;1719187;81;21562;-71
2022/03/06 10:41:51;;;;;;;5.15;3.45;;;;;;;4.35;45.76;101131.91;1727336;83;21763;-70
2022/03/06 10:44:23;;;;;;;5.55;3.30;;;;;;;4.32;45.94;101132.31;1687732;84;21161;-71
2022/03/06 10:47:03;;;;;;;5.65;3.85;;;;;;;4.33;45.86;101123.36;1697710;83;21533;-69
2022/03/06 10:49:32;;;;;;;6.83;4.08;;;;;;;4.30;45.68;101123.75;1714816;81;21120;-71
2022/03/06 10:52:17;;;;;;;7.85;4.00;;;;;;;4.31;45.48;101124.56;1708836;82;21029;-70
2022/03/06 10:54:55;;;;;;;6.87;3.85;;;;;;;4.34;45.51;101121.01;1718001;81;21224;-70
2022/03/06 10:57:23;;;;;;;7.28;4.58;;;;;;;4.33;44.96;101129.97;1711072;83;21020;-70
2022/03/06 10:59:52;;;;;;;7.30;4.17;;;;;;;4.18;45.29;101130.16;1715976;81;21085;-70
2022/03/06 11:02:20;;;;;;;6.40;4.30;;;;;;;4.18;45.44;101121.42;1682261;84;21098;-70
2022/03/06 11:04:47;;;;;;;7.67;4.35;;;;;;;4.19;45.58;101119.08;1719278;81;21151;-69
2022/03/06 11:07:16;;;;;;;5.70;3.65;;;;;;;4.25;45.57;101119.59;1718304;83;21045;-70
2022/03/06 11:09:45;;;;;;;6.20;3.87;;;;;;;4.31;45.28;101120.59;1707154;81;21099;-70
2022/03/06 11:12:13;;;;;;;5.70;3.70;;;;;;;4.21;45.22;101115.70;1714998;82;21030;-70
2022/03/06 11:14:41;;;;;;;7.87;5.10;;;;;;;4.10;45.36;101111.83;1709695;81;21161;-68
2022/03/06 11:17:08;;;;;;;8.90;6.00;;;;;;;3.99;45.48;101110.59;1709566;82;21010;-70
2022/03/06 11:19:38;;;;;;;7.40;5.10;;;;;;;3.90;45.89;101114.42;1716071;82;20969;-69
2022/03/06 11:22:23;;;;;;;9.90;5.75;;;;;;;3.89;46.30;101106.20;1712021;83;20966;-69
2022/03/06 11:24:54;;;;;;;8.23;4.87;;;;;;;3.90;46.42;101109.65;1711643;83;21120;-68
2022/03/06 11:28:00;;;;;;;8.00;4.90;;;;;;;3.80;46.18;101103.42;1718672;82;21123;-69
2022/03/06 11:30:27;;;;;;;6.80;4.35;;;;;;;3.76;46.20;101103.52;1708905;83;21161;-69
2022/03/06 11:33:07;;;;;;;7.30;4.75;;;;;;;3.78;46.14;101108.59;1710818;83;21281;-70
2022/03/06 11:35:43;;;;;;;7.10;4.30;;;;;;;3.78;46.35;101100.66;1712913;81;21124;-69
2022/03/06 11:38:20;;;;;;;7.67;4.95;;;;;;;3.83;46.39;101095.09;1682448;83;21042;-70
2022/03/06 11:40:54;;;;;;;7.70;5.37;;;;;;;3.81;46.11;101098.94;1688861;83;21083;-70